createdAt,value
2022-10-17T00:01:11.775Z,19.62
2022-10-17T00:03:40.880Z,19.56
2022-10-17T00:06:12.388Z,19.61
2022-10-17T00:08:41.907Z,19.38
2022-10-17T00:11:23.971Z,19.50
2022-10-17T00:13:55.431Z,19.51
2022-10-17T00:16:38.955Z,19.49
2022-10-17T00:19:07.939Z,19.41
2022-10-17T00:21:35.759Z,19.39
2022-10-17T00:24:03.970Z,19.24
2022-10-17T00:26:31.904Z,19.31
2022-10-17T00:29:00.649Z,19.26
2022-10-17T00:31:28.387Z,19.30
2022-10-17T00:33:56.235Z,19.26
2022-10-17T00:36:26.989Z,19.31
2022-10-17T00:38:58.665Z,19.26
2022-10-17T00:41:33.787Z,19.23
2022-10-17T00:44:27.475Z,19.33
2022-10-17T00:46:59.011Z,19.30
2022-10-17T00:49:30.568Z,19.12
2022-10-17T00:52:03.259Z,19.22
2022-10-17T00:54:40.165Z,19.25
2022-10-17T00:57:08.123Z,19.15
2022-10-17T00:59:40.162Z,19.22
2022-10-17T01:02:13.577Z,19.20
2022-10-17T01:04:44.994Z,19.15
2022-10-17T01:07:13.994Z,19.22
2022-10-17T01:09:43.731Z,19.22
2022-10-17T01:12:31.131Z,19.20
2022-10-17T01:15:45.382Z,19.22
2022-10-17T01:18:54.049Z,19.23
2022-10-17T01:21:49.108Z,19.20
2022-10-17T01:24:48.357Z,19.11
2022-10-17T01:28:00.947Z,19.05
2022-10-17T01:31:22.664Z,19.05
2022-10-17T01:34:24.713Z,19.01
2022-10-17T01:37:56.742Z,19.00
2022-10-17T01:41:10.475Z,18.91
2022-10-17T01:43:47.264Z,18.89
2022-10-17T01:46:32.016Z,18.85
2022-10-17T01:49:02.872Z,18.83
2022-10-17T01:51:59.748Z,18.79
2022-10-17T01:55:12.348Z,18.78
2022-10-17T01:57:55.736Z,18.78
2022-10-17T02:00:27.810Z,18.81
2022-10-17T02:03:02.775Z,18.84
2022-10-17T02:05:41.391Z,18.85
2022-10-17T02:08:12.716Z,18.71
2022-10-17T02:11:07.686Z,18.76
2022-10-17T02:13:59.245Z,18.75
2022-10-17T02:17:24.863Z,18.68
2022-10-17T02:20:25.740Z,18.60
2022-10-17T02:26:06.556Z,18.63
2022-10-17T02:28:56.310Z,18.60
2022-10-17T02:31:40.326Z,18.59
2022-10-17T02:34:18.590Z,18.53
2022-10-17T02:37:12.977Z,18.52
2022-10-17T02:40:02.142Z,18.45
2022-10-17T02:42:31.842Z,18.52
2022-10-17T02:45:04.224Z,18.56
2022-10-17T02:47:52.310Z,18.59
2022-10-17T02:50:31.098Z,18.62
2022-10-17T02:53:17.751Z,18.59
2022-10-17T02:56:00.287Z,18.58
2022-10-17T02:58:32.987Z,18.55
2022-10-17T03:01:04.972Z,18.54
2022-10-17T03:03:34.615Z,18.52
2022-10-17T03:06:03.607Z,18.51
2022-10-17T03:08:32.004Z,18.53
2022-10-17T03:11:02.938Z,18.58
2022-10-17T03:13:34.952Z,18.58
2022-10-17T03:16:06.435Z,18.49
2022-10-17T03:18:35.944Z,18.49
2022-10-17T03:21:05.025Z,18.37
2022-10-17T03:23:32.936Z,18.35
2022-10-17T03:26:07.709Z,18.24
2022-10-17T03:28:36.894Z,18.21
2022-10-17T03:31:12.225Z,18.16
2022-10-17T03:33:40.335Z,18.18
2022-10-17T03:36:12.858Z,18.20
2022-10-17T03:38:42.547Z,18.17
2022-10-17T03:41:11.193Z,18.07
2022-10-17T03:43:40.921Z,18.07
2022-10-17T03:46:10.135Z,18.06
2022-10-17T03:48:38.999Z,18.04
2022-10-17T03:51:10.739Z,18.03
2022-10-17T03:53:46.704Z,17.91
2022-10-17T03:56:25.452Z,18.06
2022-10-17T03:59:01.005Z,18.04
2022-10-17T04:01:30.691Z,18.00
2022-10-17T04:03:59.601Z,18.05
2022-10-17T04:06:31.307Z,18.04
2022-10-17T04:09:00.245Z,18.08
2022-10-17T04:11:34.598Z,18.01
2022-10-17T04:14:04.038Z,18.05
2022-10-17T04:16:33.214Z,18.02
2022-10-17T04:19:04.245Z,17.95
2022-10-17T04:21:38.061Z,17.93
2022-10-17T04:24:12.618Z,17.98
2022-10-17T04:26:52.518Z,17.99
2022-10-17T04:29:27.109Z,17.97
2022-10-17T04:32:02.694Z,17.94
2022-10-17T04:34:40.447Z,17.93
2022-10-17T04:37:08.369Z,17.91
2022-10-17T04:39:38.760Z,17.92
2022-10-17T04:42:07.761Z,17.90
2022-10-17T04:44:35.830Z,17.88
2022-10-17T04:47:04.170Z,17.85
2022-10-17T04:49:34.320Z,17.83
2022-10-17T04:52:12.025Z,17.83
2022-10-17T04:54:49.286Z,17.82
2022-10-17T04:57:20.254Z,17.86
2022-10-17T04:59:57.971Z,17.87
2022-10-17T05:02:45.185Z,17.85
2022-10-17T05:05:13.134Z,17.90
2022-10-17T05:07:41.841Z,17.89
2022-10-17T05:10:18.897Z,17.82
2022-10-17T05:12:50.589Z,17.76
2022-10-17T05:15:20.443Z,17.72
2022-10-17T05:17:49.434Z,17.73
2022-10-17T05:20:18.745Z,17.73
2022-10-17T05:22:46.993Z,17.75
2022-10-17T05:25:15.732Z,17.71
2022-10-17T05:27:48.800Z,17.69
2022-10-17T05:30:17.219Z,17.73
2022-10-17T05:32:45.650Z,17.74
2022-10-17T05:35:13.504Z,17.69
2022-10-17T05:37:42.677Z,17.73
2022-10-17T05:40:11.780Z,17.69
2022-10-17T05:42:47.877Z,17.75
2022-10-17T05:45:17.851Z,17.63
2022-10-17T05:47:47.020Z,17.72
2022-10-17T05:50:15.143Z,17.67
2022-10-17T05:53:01.083Z,17.66
2022-10-17T05:55:29.556Z,17.62
2022-10-17T05:58:01.397Z,17.61
2022-10-17T06:00:35.117Z,17.53
2022-10-17T06:03:06.354Z,17.57
2022-10-17T06:05:36.476Z,17.50
2022-10-17T06:08:04.517Z,17.50
2022-10-17T06:10:36.044Z,17.47
2022-10-17T06:13:04.152Z,17.48
2022-10-17T06:15:32.409Z,17.54
2022-10-17T06:18:04.811Z,17.50
2022-10-17T06:20:35.242Z,17.45
2022-10-17T06:23:04.324Z,17.56
2022-10-17T06:26:03.261Z,17.57
2022-10-17T06:28:32.027Z,17.60
2022-10-17T06:31:00.512Z,17.65
2022-10-17T06:33:28.309Z,17.69
2022-10-17T06:35:57.356Z,17.72
2022-10-17T06:38:27.028Z,17.73
2022-10-17T06:41:11.389Z,17.76
2022-10-17T06:43:40.619Z,17.76
2022-10-17T06:46:29.962Z,17.78
2022-10-17T06:49:07.369Z,17.80
2022-10-17T06:51:49.673Z,17.80
2022-10-17T06:54:20.914Z,17.88
2022-10-17T06:56:53.289Z,17.94
2022-10-17T06:59:40.418Z,17.93
2022-10-17T07:02:12.978Z,18.00
2022-10-17T07:04:40.936Z,18.07
2022-10-17T07:07:08.984Z,18.06
2022-10-17T07:09:37.627Z,18.10
2022-10-17T07:12:08.460Z,18.07
2022-10-17T07:14:36.853Z,18.17
2022-10-17T07:17:06.539Z,18.12
2022-10-17T07:19:34.513Z,18.27
2022-10-17T07:22:04.079Z,18.31
2022-10-17T07:24:33.791Z,18.36
2022-10-17T07:27:26.547Z,18.39
2022-10-17T07:29:55.225Z,18.44
2022-10-17T07:32:54.392Z,18.54
2022-10-17T07:35:22.453Z,18.61
2022-10-17T07:37:52.577Z,18.67
2022-10-17T07:40:22.461Z,18.72
2022-10-17T07:42:51.207Z,18.76
2022-10-17T07:45:20.644Z,18.84
2022-10-17T07:47:49.067Z,18.90
2022-10-17T07:50:18.246Z,19.00
2022-10-17T07:52:46.405Z,19.08
2022-10-17T07:55:15.686Z,19.16
2022-10-17T07:57:44.598Z,19.22
2022-10-17T08:00:13.269Z,19.31
2022-10-17T08:02:42.801Z,19.38
2022-10-17T08:07:54.781Z,19.48
2022-10-17T08:10:27.766Z,19.64
2022-10-17T08:12:57.843Z,19.66
2022-10-17T08:15:30.878Z,19.78
2022-10-17T08:18:00.435Z,19.74
2022-10-17T08:20:28.750Z,19.92
2022-10-17T08:22:57.499Z,19.97
2022-10-17T08:25:27.126Z,20.10
2022-10-17T08:27:55.125Z,20.20
2022-10-17T08:30:23.356Z,20.25
2022-10-17T08:32:52.777Z,20.35
2022-10-17T08:35:21.868Z,20.42
2022-10-17T08:37:50.604Z,20.55
2022-10-17T08:40:27.692Z,20.64
2022-10-17T08:44:09.074Z,20.66
2022-10-17T08:46:41.386Z,20.80
2022-10-17T08:50:03.700Z,20.97
2022-10-17T08:52:54.430Z,21.05
2022-10-17T08:55:48.907Z,21.11
2022-10-17T08:58:26.072Z,21.27
2022-10-17T09:01:17.851Z,21.36
2022-10-17T09:04:01.111Z,21.45
2022-10-17T09:06:41.787Z,21.53
2022-10-17T09:09:47.526Z,21.62
2022-10-17T09:12:30.500Z,21.62
2022-10-17T09:15:36.293Z,21.76
2022-10-17T09:18:32.466Z,21.82
2022-10-17T09:21:45.289Z,21.93
2022-10-17T09:24:55.121Z,22.00
2022-10-17T09:27:41.312Z,22.04
2022-10-17T09:30:45.943Z,22.14
2022-10-17T09:33:55.050Z,22.18
2022-10-17T09:36:33.916Z,22.26
2022-10-17T09:39:13.572Z,22.33
2022-10-17T09:41:58.996Z,22.40
2022-10-17T09:44:35.047Z,22.48
2022-10-17T09:47:14.709Z,22.55
2022-10-17T09:49:46.096Z,22.57
2022-10-17T09:52:40.292Z,22.40
2022-10-17T09:55:38.467Z,22.57
2022-10-17T09:58:09.601Z,22.63
2022-10-17T10:00:39.430Z,22.65
2022-10-17T10:03:23.719Z,22.80
2022-10-17T10:06:27.264Z,22.82
2022-10-17T10:08:58.999Z,22.86
2022-10-17T10:11:49.372Z,22.99
2022-10-17T10:14:34.956Z,23.05
2022-10-17T10:17:06.941Z,23.08
2022-10-17T10:19:37.521Z,23.14
2022-10-17T10:22:14.540Z,23.15
2022-10-17T10:24:43.375Z,23.24
2022-10-17T10:27:18.019Z,23.33
2022-10-17T10:29:51.494Z,23.43
2022-10-17T10:32:26.811Z,23.50
2022-10-17T10:35:31.281Z,23.49
2022-10-17T10:38:02.199Z,23.61
2022-10-17T10:41:01.235Z,23.67
2022-10-17T10:43:46.272Z,23.80
2022-10-17T10:46:27.719Z,23.88
2022-10-17T10:48:59.766Z,23.68
2022-10-17T10:51:48.477Z,23.93
2022-10-17T10:54:28.203Z,24.03
2022-10-17T10:57:03.533Z,24.08
2022-10-17T11:00:05.480Z,24.18
2022-10-17T11:03:42.460Z,24.23
2022-10-17T11:06:23.580Z,24.28
2022-10-17T11:09:04.121Z,24.32
2022-10-17T11:11:42.591Z,24.32
2022-10-17T11:14:34.450Z,24.49
2022-10-17T11:17:29.469Z,24.54
2022-10-17T11:21:01.112Z,24.58
2022-10-17T11:24:30.234Z,24.58
2022-10-17T11:27:05.727Z,24.67
2022-10-17T11:29:38.732Z,24.67
2022-10-17T11:33:01.035Z,24.81
2022-10-17T11:35:42.734Z,24.83
2022-10-17T11:38:45.449Z,24.67
2022-10-17T11:41:27.448Z,24.89
2022-10-17T11:44:04.078Z,24.98
2022-10-17T11:46:36.186Z,24.97
2022-10-17T11:49:28.604Z,25.07
2022-10-17T11:52:55.843Z,25.14
2022-10-17T11:55:28.465Z,25.14
2022-10-17T11:58:11.200Z,25.24
2022-10-17T12:01:08.359Z,25.26
2022-10-17T12:04:20.520Z,25.26
2022-10-17T12:07:11.359Z,25.30
2022-10-17T12:10:35.599Z,25.29
2022-10-17T12:13:32.899Z,25.34
2022-10-17T12:16:19.619Z,25.39
2022-10-17T12:19:03.031Z,25.42
2022-10-17T12:22:19.308Z,25.43
2022-10-17T12:24:56.151Z,25.46
2022-10-17T12:27:46.316Z,25.50
2022-10-17T12:30:25.749Z,25.52
2022-10-17T12:33:07.024Z,25.44
2022-10-17T12:35:38.813Z,25.54
2022-10-17T12:38:20.441Z,25.39
2022-10-17T12:40:50.658Z,25.49
2022-10-17T12:43:28.802Z,25.58
2022-10-17T12:46:04.858Z,25.62
2022-10-17T12:48:39.084Z,25.64
2022-10-17T12:54:16.652Z,25.66
2022-10-17T12:56:48.572Z,25.61
2022-10-17T12:59:27.781Z,25.72
2022-10-17T13:02:01.667Z,25.69
2022-10-17T13:04:31.220Z,25.71
2022-10-17T13:07:01.430Z,25.66
2022-10-17T13:09:35.518Z,25.82
2022-10-17T13:12:11.487Z,25.86
2022-10-17T13:14:44.225Z,25.92
2022-10-17T13:17:30.949Z,25.95
2022-10-17T13:19:59.213Z,25.87
2022-10-17T13:22:32.480Z,26.05
2022-10-17T13:25:17.183Z,26.09
2022-10-17T13:27:46.055Z,26.06
2022-10-17T13:30:32.249Z,26.14
2022-10-17T13:33:03.480Z,26.06
2022-10-17T13:35:59.440Z,26.14
2022-10-17T13:38:38.920Z,26.20
2022-10-17T13:44:12.390Z,26.17
2022-10-17T13:46:41.434Z,26.27
2022-10-17T13:49:25.718Z,26.27
2022-10-17T13:51:58.195Z,26.35
2022-10-17T13:54:42.888Z,26.40
2022-10-17T13:57:31.926Z,26.41
2022-10-17T14:00:25.192Z,26.42
2022-10-17T14:02:53.421Z,26.43
2022-10-17T14:05:25.148Z,26.45
2022-10-17T14:08:20.459Z,26.49
2022-10-17T14:10:49.448Z,26.51
2022-10-17T14:13:34.318Z,26.58
2022-10-17T14:16:04.475Z,26.57
2022-10-17T14:18:37.682Z,26.61
2022-10-17T14:21:34.291Z,26.61
2022-10-17T14:24:23.501Z,26.63
2022-10-17T14:26:59.555Z,26.64
2022-10-17T14:29:53.125Z,26.59
2022-10-17T14:32:22.490Z,26.63
2022-10-17T14:35:05.570Z,26.62
2022-10-17T14:38:07.407Z,26.60
2022-10-17T14:41:43.774Z,26.54
2022-10-17T14:44:32.576Z,26.61
2022-10-17T14:47:31.143Z,26.62
2022-10-17T14:50:28.046Z,26.59
2022-10-17T14:53:21.031Z,26.62
2022-10-17T14:56:25.126Z,26.59
2022-10-17T14:58:53.777Z,26.58
2022-10-17T15:01:25.237Z,26.55
2022-10-17T15:03:53.862Z,26.60
2022-10-17T15:06:26.692Z,26.61
2022-10-17T15:08:54.787Z,26.55
2022-10-17T15:11:22.890Z,26.57
2022-10-17T15:13:51.893Z,26.56
2022-10-17T15:16:31.061Z,26.56
2022-10-17T15:18:59.339Z,26.47
2022-10-17T15:21:47.296Z,26.41
2022-10-17T15:24:15.969Z,26.40
2022-10-17T15:26:43.848Z,26.43
2022-10-17T15:29:16.113Z,26.43
2022-10-17T15:31:44.316Z,26.39
2022-10-17T15:34:12.446Z,26.29
2022-10-17T15:36:48.167Z,26.33
2022-10-17T15:39:16.844Z,26.22
2022-10-17T15:41:45.359Z,26.23
2022-10-17T15:44:13.387Z,26.18
2022-10-17T15:46:42.701Z,26.19
2022-10-17T15:49:14.567Z,26.16
2022-10-17T15:51:42.931Z,26.09
2022-10-17T15:56:54.053Z,26.04
2022-10-17T15:59:28.881Z,25.99
2022-10-17T16:01:57.006Z,25.94
2022-10-17T16:04:27.476Z,25.92
2022-10-17T16:06:55.246Z,25.84
2022-10-17T16:09:23.284Z,25.85
2022-10-17T16:11:51.278Z,25.81
2022-10-17T16:14:19.543Z,25.78
2022-10-17T16:16:48.122Z,25.73
2022-10-17T16:19:17.238Z,25.65
2022-10-17T16:21:45.675Z,25.64
2022-10-17T16:24:15.440Z,25.53
2022-10-17T16:26:43.502Z,25.54
2022-10-17T16:29:12.068Z,25.45
2022-10-17T16:31:45.788Z,25.37
2022-10-17T16:34:16.292Z,25.34
2022-10-17T16:36:44.252Z,25.18
2022-10-17T16:39:12.121Z,25.17
2022-10-17T16:41:40.784Z,25.08
2022-10-17T16:44:15.347Z,25.00
2022-10-17T16:46:43.974Z,24.92
2022-10-17T16:49:12.616Z,24.87
2022-10-17T16:51:40.773Z,24.80
2022-10-17T16:54:10.040Z,24.72
2022-10-17T16:56:38.396Z,24.65
2022-10-17T16:59:08.101Z,24.62
2022-10-17T17:01:37.978Z,24.57
2022-10-17T17:04:05.844Z,24.49
2022-10-17T17:06:33.670Z,24.39
2022-10-17T17:09:02.869Z,24.38
2022-10-17T17:11:32.722Z,24.31
2022-10-17T17:14:02.621Z,24.19
2022-10-17T17:16:34.913Z,24.22
2022-10-17T17:19:12.493Z,24.17
2022-10-17T17:21:43.469Z,24.10
2022-10-17T17:24:11.244Z,23.99
2022-10-17T17:26:40.947Z,23.96
2022-10-17T17:29:09.416Z,23.90
2022-10-17T17:31:39.127Z,23.81
2022-10-17T17:34:07.499Z,23.82
2022-10-17T17:36:37.964Z,23.77
2022-10-17T17:39:11.436Z,23.68
2022-10-17T17:41:42.486Z,23.67
2022-10-17T17:44:16.430Z,23.66
2022-10-17T17:46:45.838Z,23.64
2022-10-17T17:49:14.384Z,23.64
2022-10-17T17:51:46.094Z,23.57
2022-10-17T17:54:15.230Z,23.58
2022-10-17T17:56:43.647Z,23.54
2022-10-17T17:59:13.804Z,23.49
2022-10-17T18:01:43.309Z,23.36
2022-10-17T18:04:13.652Z,23.35
2022-10-17T18:06:41.711Z,23.20
2022-10-17T18:09:10.872Z,23.23
2022-10-17T18:11:39.124Z,23.16
2022-10-17T18:14:13.426Z,23.13
2022-10-17T18:16:44.205Z,23.16
2022-10-17T18:19:12.767Z,23.16
2022-10-17T18:21:44.557Z,23.20
2022-10-17T18:24:12.913Z,23.20
2022-10-17T18:26:40.938Z,23.25
2022-10-17T18:29:12.869Z,23.26
2022-10-17T18:31:41.003Z,23.21
2022-10-17T18:34:10.580Z,23.26
2022-10-17T18:36:40.524Z,23.17
2022-10-17T18:39:09.202Z,23.09
2022-10-17T18:41:37.127Z,23.18
2022-10-17T18:44:05.345Z,23.10
2022-10-17T18:46:41.222Z,23.21
2022-10-17T18:49:16.164Z,23.20
2022-10-17T18:51:44.025Z,23.14
2022-10-17T18:54:21.339Z,23.16
2022-10-17T18:56:54.869Z,23.13
2022-10-17T18:59:23.467Z,23.10
2022-10-17T19:01:51.492Z,23.09
2022-10-17T19:04:20.167Z,23.11
2022-10-17T19:06:50.414Z,23.14
2022-10-17T19:09:20.153Z,23.07
2022-10-17T19:11:48.674Z,23.08
2022-10-17T19:14:16.922Z,22.96
2022-10-17T19:16:49.034Z,22.91
2022-10-17T19:19:22.739Z,22.85
2022-10-17T19:21:52.710Z,22.84
2022-10-17T19:24:28.379Z,22.81
2022-10-17T19:27:03.322Z,22.77
2022-10-17T19:29:33.104Z,22.65
2022-10-17T19:32:02.783Z,22.63
2022-10-17T19:34:31.598Z,22.64
2022-10-17T19:37:01.610Z,22.61
2022-10-17T19:39:31.124Z,22.56
2022-10-17T19:42:05.893Z,22.52
2022-10-17T19:44:37.250Z,22.57
2022-10-17T19:47:05.914Z,22.53
2022-10-17T19:49:34.556Z,22.50
2022-10-17T19:52:03.275Z,22.48
2022-10-17T19:54:31.899Z,22.52
2022-10-17T19:57:00.876Z,22.47
2022-10-17T19:59:29.690Z,22.47
2022-10-17T20:02:00.410Z,22.33
2022-10-17T20:04:29.333Z,22.34
2022-10-17T20:07:00.261Z,22.34
2022-10-17T20:09:28.886Z,22.28
2022-10-17T20:11:57.781Z,22.34
2022-10-17T20:14:26.806Z,22.29
2022-10-17T20:16:55.884Z,22.28
2022-10-17T20:19:24.577Z,22.24
2022-10-17T20:21:53.327Z,22.18
2022-10-17T20:24:21.886Z,22.11
2022-10-17T20:26:50.782Z,22.10
2022-10-17T20:29:24.230Z,22.06
2022-10-17T20:31:52.999Z,22.00
2022-10-17T20:34:21.722Z,21.98
2022-10-17T20:36:54.292Z,21.73
2022-10-17T20:39:24.575Z,21.85
2022-10-17T20:41:52.558Z,21.91
2022-10-17T20:44:21.044Z,21.93
2022-10-17T20:47:04.447Z,21.84
2022-10-17T20:49:33.723Z,21.84
2022-10-17T20:52:02.461Z,21.80
2022-10-17T20:54:38.598Z,21.88
2022-10-17T20:57:07.516Z,21.87
2022-10-17T20:59:38.039Z,21.88
2022-10-17T21:02:08.495Z,21.89
2022-10-17T21:04:52.509Z,21.79
2022-10-17T21:07:22.487Z,21.77
2022-10-17T21:09:50.889Z,21.76
2022-10-17T21:12:26.219Z,21.76
2022-10-17T21:15:05.609Z,21.65
2022-10-17T21:17:33.906Z,21.57
2022-10-17T21:20:03.502Z,21.50
2022-10-17T21:22:34.981Z,21.48
2022-10-17T21:25:03.444Z,21.37
2022-10-17T21:27:31.918Z,21.42
2022-10-17T21:30:00.153Z,21.34
2022-10-17T21:32:47.091Z,21.20
2022-10-17T21:35:15.980Z,21.10
2022-10-17T21:37:44.279Z,21.04
2022-10-17T21:40:13.130Z,20.94
2022-10-17T21:42:41.671Z,20.89
2022-10-17T21:45:15.840Z,20.94
2022-10-17T21:48:11.322Z,21.02
2022-10-17T21:50:36.218Z,21.03
2022-10-17T21:53:04.069Z,21.02
2022-10-17T21:55:32.641Z,21.11
2022-10-17T21:58:01.177Z,21.14
2022-10-17T22:00:30.183Z,21.13
2022-10-17T22:02:58.834Z,21.09
2022-10-17T22:05:27.640Z,21.16
2022-10-17T22:07:56.528Z,20.99
2022-10-17T22:10:24.648Z,21.16
2022-10-17T22:12:52.746Z,21.12
2022-10-17T22:15:21.182Z,21.06
2022-10-17T22:17:50.429Z,21.04
2022-10-17T22:20:19.841Z,21.00
2022-10-17T22:22:48.265Z,20.97
2022-10-17T22:25:16.919Z,20.95
2022-10-17T22:27:44.754Z,20.97
2022-10-17T22:30:12.936Z,20.98
2022-10-17T22:32:40.997Z,20.93
2022-10-17T22:35:09.881Z,20.95
2022-10-17T22:37:37.768Z,20.95
2022-10-17T22:40:07.157Z,20.92
2022-10-17T22:42:35.725Z,20.89
2022-10-17T22:45:04.274Z,20.89
2022-10-17T22:47:32.479Z,20.84
2022-10-17T22:50:00.973Z,20.83
2022-10-17T22:52:30.276Z,20.76
2022-10-17T22:54:58.869Z,20.78
2022-10-17T22:57:26.920Z,20.72
2022-10-17T22:59:54.833Z,20.66
2022-10-17T23:02:22.884Z,20.55
2022-10-17T23:04:50.891Z,20.55
2022-10-17T23:07:18.820Z,20.55
2022-10-17T23:09:46.915Z,20.53
2022-10-17T23:12:15.559Z,20.50
2022-10-17T23:14:44.188Z,20.49
2022-10-17T23:17:14.300Z,20.47
2022-10-17T23:19:42.041Z,20.44
2022-10-17T23:22:10.223Z,20.39
2022-10-17T23:24:38.115Z,20.51
2022-10-17T23:27:05.936Z,20.49
2022-10-17T23:29:34.986Z,20.49
2022-10-17T23:32:02.789Z,20.48
2022-10-17T23:34:30.565Z,20.48
2022-10-17T23:36:58.685Z,20.50
2022-10-17T23:39:27.589Z,20.52
2022-10-17T23:41:56.439Z,20.47
2022-10-17T23:44:24.831Z,20.52
2022-10-17T23:46:52.782Z,20.53
2022-10-17T23:49:20.643Z,20.49
2022-10-17T23:51:48.662Z,20.42
2022-10-17T23:54:18.439Z,20.36
2022-10-17T23:56:46.337Z,20.33
2022-10-17T23:59:14.155Z,20.31
